sensor_id;sensor_type;location;lat;lon;timestamp;temperature;humidity
11700;DHT22;5906;51.660;6.674;2023-04-23T00:02:15;9.50;99.90
11700;DHT22;5906;51.660;6.674;2023-04-23T00:04:49;9.50;99.90
11700;DHT22;5906;51.660;6.674;2023-04-23T00:07:19;9.40;99.90
11700;DHT22;5906;51.660;6.674;2023-04-23T00:09:49;9.40;99.90
11700;DHT22;5906;51.660;6.674;2023-04-23T00:12:19;9.40;99.90
11700;DHT22;5906;51.660;6.674;2023-04-23T00:14:47;9.40;99.90
11700;DHT22;5906;51.660;6.674;2023-04-23T00:17:14;9.40;99.90
11700;DHT22;5906;51.660;6.674;2023-04-23T00:19:41;9.40;99.90
11700;DHT22;5906;51.660;6.674;2023-04-23T00:22:08;9.30;99.90
11700;DHT22;5906;51.660;6.674;2023-04-23T00:24:35;9.40;99.90
11700;DHT22;5906;51.660;6.674;2023-04-23T00:27:05;9.30;99.90
11700;DHT22;5906;51.660;6.674;2023-04-23T00:29:32;9.40;99.90
11700;DHT22;5906;51.660;6.674;2023-04-23T00:31:59;9.40;99.90
11700;DHT22;5906;51.660;6.674;2023-04-23T00:34:26;9.40;99.90
11700;DHT22;5906;51.660;6.674;2023-04-23T00:36:54;9.30;99.90
11700;DHT22;5906;51.660;6.674;2023-04-23T00:39:21;9.30;99.90
11700;DHT22;5906;51.660;6.674;2023-04-23T00:41:48;9.20;99.90
11700;DHT22;5906;51.660;6.674;2023-04-23T00:44:15;9.20;99.90
11700;DHT22;5906;51.660;6.674;2023-04-23T00:46:43;9.10;99.90
11700;DHT22;5906;51.660;6.674;2023-04-23T00:49:11;9.10;99.90
11700;DHT22;5906;51.660;6.674;2023-04-23T00:51:39;9.00;99.90
11700;DHT22;5906;51.660;6.674;2023-04-23T00:54:06;9.00;99.90
11700;DHT22;5906;51.660;6.674;2023-04-23T00:56:33;8.90;99.90
11700;DHT22;5906;51.660;6.674;2023-04-23T00:59:01;8.90;99.90
11700;DHT22;5906;51.660;6.674;2023-04-23T01:01:29;8.90;99.90
11700;DHT22;5906;51.660;6.674;2023-04-23T01:03:56;8.90;99.90
11700;DHT22;5906;51.660;6.674;2023-04-23T01:06:25;8.90;99.90
11700;DHT22;5906;51.660;6.674;2023-04-23T01:08:54;8.80;99.90
11700;DHT22;5906;51.660;6.674;2023-04-23T01:11:21;8.80;99.90
11700;DHT22;5906;51.660;6.674;2023-04-23T01:13:49;8.80;99.90
11700;DHT22;5906;51.660;6.674;2023-04-23T01:16:17;8.80;99.90
11700;DHT22;5906;51.660;6.674;2023-04-23T01:18:44;8.90;99.90
11700;DHT22;5906;51.660;6.674;2023-04-23T01:21:11;8.90;99.90
11700;DHT22;5906;51.660;6.674;2023-04-23T01:23:40;8.80;99.90
11700;DHT22;5906;51.660;6.674;2023-04-23T01:26:07;8.80;99.90
11700;DHT22;5906;51.660;6.674;2023-04-23T01:28:36;8.80;99.90
11700;DHT22;5906;51.660;6.674;2023-04-23T01:31:03;8.80;99.90
11700;DHT22;5906;51.660;6.674;2023-04-23T01:33:31;8.80;99.90
11700;DHT22;5906;51.660;6.674;2023-04-23T01:35:59;8.70;99.90
11700;DHT22;5906;51.660;6.674;2023-04-23T01:38:29;8.60;99.90
11700;DHT22;5906;51.660;6.674;2023-04-23T01:40:57;8.60;99.90
11700;DHT22;5906;51.660;6.674;2023-04-23T01:43:24;8.50;99.90
11700;DHT22;5906;51.660;6.674;2023-04-23T01:45:51;8.50;99.90
11700;DHT22;5906;51.660;6.674;2023-04-23T01:48:18;8.50;99.90
11700;DHT22;5906;51.660;6.674;2023-04-23T01:50:45;8.40;99.90
11700;DHT22;5906;51.660;6.674;2023-04-23T01:53:12;8.40;99.90
11700;DHT22;5906;51.660;6.674;2023-04-23T01:55:40;8.40;99.90
11700;DHT22;5906;51.660;6.674;2023-04-23T01:58:08;8.40;99.90
11700;DHT22;5906;51.660;6.674;2023-04-23T02:00:35;8.40;99.90
11700;DHT22;5906;51.660;6.674;2023-04-23T02:03:02;8.40;99.90
11700;DHT22;5906;51.660;6.674;2023-04-23T02:05:34;8.40;99.90
11700;DHT22;5906;51.660;6.674;2023-04-23T02:08:02;8.40;99.90
11700;DHT22;5906;51.660;6.674;2023-04-23T02:10:29;8.30;99.90
11700;DHT22;5906;51.660;6.674;2023-04-23T02:12:57;8.30;99.90
11700;DHT22;5906;51.660;6.674;2023-04-23T02:15:24;8.40;99.90
11700;DHT22;5906;51.660;6.674;2023-04-23T02:17:51;8.40;99.90
11700;DHT22;5906;51.660;6.674;2023-04-23T02:20:19;8.40;99.90
11700;DHT22;5906;51.660;6.674;2023-04-23T02:22:48;8.30;99.90
11700;DHT22;5906;51.660;6.674;2023-04-23T02:25:15;8.30;99.90
11700;DHT22;5906;51.660;6.674;2023-04-23T02:27:44;8.30;99.90
11700;DHT22;5906;51.660;6.674;2023-04-23T02:30:11;8.30;99.90
11700;DHT22;5906;51.660;6.674;2023-04-23T02:32:38;8.30;99.90
11700;DHT22;5906;51.660;6.674;2023-04-23T02:35:06;8.30;99.90
11700;DHT22;5906;51.660;6.674;2023-04-23T02:37:36;8.30;99.90
11700;DHT22;5906;51.660;6.674;2023-04-23T02:40:03;8.20;99.90
11700;DHT22;5906;51.660;6.674;2023-04-23T02:42:31;8.10;99.90
11700;DHT22;5906;51.660;6.674;2023-04-23T02:44:58;8.10;99.90
11700;DHT22;5906;51.660;6.674;2023-04-23T02:47:25;8.10;99.90
11700;DHT22;5906;51.660;6.674;2023-04-23T02:49:53;8.10;99.90
11700;DHT22;5906;51.660;6.674;2023-04-23T02:52:20;8.10;99.90
11700;DHT22;5906;51.660;6.674;2023-04-23T02:54:46;8.20;99.90
11700;DHT22;5906;51.660;6.674;2023-04-23T02:57:15;8.20;99.90
11700;DHT22;5906;51.660;6.674;2023-04-23T02:59:42;8.20;99.90
11700;DHT22;5906;51.660;6.674;2023-04-23T03:02:09;8.30;99.90
11700;DHT22;5906;51.660;6.674;2023-04-23T03:04:36;8.30;99.90
11700;DHT22;5906;51.660;6.674;2023-04-23T03:07:04;8.30;99.90
11700;DHT22;5906;51.660;6.674;2023-04-23T03:09:31;8.30;99.90
11700;DHT22;5906;51.660;6.674;2023-04-23T03:11:58;8.30;99.90
11700;DHT22;5906;51.660;6.674;2023-04-23T03:14:25;8.30;99.90
11700;DHT22;5906;51.660;6.674;2023-04-23T03:16:52;8.30;99.90
11700;DHT22;5906;51.660;6.674;2023-04-23T03:19:19;8.40;99.90
11700;DHT22;5906;51.660;6.674;2023-04-23T03:21:47;8.40;99.90
11700;DHT22;5906;51.660;6.674;2023-04-23T03:24:15;8.50;99.90
11700;DHT22;5906;51.660;6.674;2023-04-23T03:26:42;8.50;99.90
11700;DHT22;5906;51.660;6.674;2023-04-23T03:29:09;8.60;99.90
11700;DHT22;5906;51.660;6.674;2023-04-23T03:31:36;8.60;99.90
11700;DHT22;5906;51.660;6.674;2023-04-23T03:34:03;8.60;99.90
11700;DHT22;5906;51.660;6.674;2023-04-23T03:36:30;8.60;99.90
11700;DHT22;5906;51.660;6.674;2023-04-23T03:38:57;8.60;99.90
11700;DHT22;5906;51.660;6.674;2023-04-23T03:41:24;8.70;99.90
11700;DHT22;5906;51.660;6.674;2023-04-23T03:43:51;8.70;99.90
11700;DHT22;5906;51.660;6.674;2023-04-23T03:46:19;8.70;99.90
11700;DHT22;5906;51.660;6.674;2023-04-23T03:48:46;8.70;99.90
11700;DHT22;5906;51.660;6.674;2023-04-23T03:51:13;8.60;99.90
11700;DHT22;5906;51.660;6.674;2023-04-23T03:53:40;8.60;99.90
11700;DHT22;5906;51.660;6.674;2023-04-23T03:56:07;8.60;99.90
11700;DHT22;5906;51.660;6.674;2023-04-23T03:58:34;8.60;99.90
11700;DHT22;5906;51.660;6.674;2023-04-23T04:01:00;8.60;99.90
11700;DHT22;5906;51.660;6.674;2023-04-23T04:03:27;8.50;99.90
11700;DHT22;5906;51.660;6.674;2023-04-23T04:05:55;8.50;99.90
11700;DHT22;5906;51.660;6.674;2023-04-23T04:08:22;8.50;99.90
11700;DHT22;5906;51.660;6.674;2023-04-23T04:10:48;8.50;99.90
11700;DHT22;5906;51.660;6.674;2023-04-23T04:13:16;8.50;99.90
11700;DHT22;5906;51.660;6.674;2023-04-23T04:15:43;8.60;99.90
11700;DHT22;5906;51.660;6.674;2023-04-23T04:18:10;8.60;99.90
11700;DHT22;5906;51.660;6.674;2023-04-23T04:20:36;8.60;99.90
11700;DHT22;5906;51.660;6.674;2023-04-23T04:23:04;8.60;99.90
11700;DHT22;5906;51.660;6.674;2023-04-23T04:25:31;8.50;99.90
11700;DHT22;5906;51.660;6.674;2023-04-23T04:27:58;8.50;99.90
11700;DHT22;5906;51.660;6.674;2023-04-23T04:30:26;8.40;99.90
11700;DHT22;5906;51.660;6.674;2023-04-23T04:32:53;8.40;99.90
11700;DHT22;5906;51.660;6.674;2023-04-23T04:35:20;8.40;99.90
11700;DHT22;5906;51.660;6.674;2023-04-23T04:37:47;8.50;99.90
11700;DHT22;5906;51.660;6.674;2023-04-23T04:40:15;8.40;99.90
11700;DHT22;5906;51.660;6.674;2023-04-23T04:42:42;8.40;99.90
11700;DHT22;5906;51.660;6.674;2023-04-23T04:45:09;8.40;99.90
11700;DHT22;5906;51.660;6.674;2023-04-23T04:47:36;8.40;99.90
11700;DHT22;5906;51.660;6.674;2023-04-23T04:50:04;8.40;99.90
11700;DHT22;5906;51.660;6.674;2023-04-23T04:52:31;8.40;99.90
11700;DHT22;5906;51.660;6.674;2023-04-23T04:54:58;8.50;99.90
11700;DHT22;5906;51.660;6.674;2023-04-23T04:57:25;8.60;99.90
11700;DHT22;5906;51.660;6.674;2023-04-23T04:59:51;8.60;99.90
11700;DHT22;5906;51.660;6.674;2023-04-23T05:02:19;8.70;99.90
11700;DHT22;5906;51.660;6.674;2023-04-23T05:04:47;8.70;99.90
11700;DHT22;5906;51.660;6.674;2023-04-23T05:07:14;8.70;99.90
11700;DHT22;5906;51.660;6.674;2023-04-23T05:09:41;8.80;99.90
11700;DHT22;5906;51.660;6.674;2023-04-23T05:12:10;8.90;99.90
11700;DHT22;5906;51.660;6.674;2023-04-23T05:14:37;9.00;99.90
11700;DHT22;5906;51.660;6.674;2023-04-23T05:17:04;9.10;99.90
11700;DHT22;5906;51.660;6.674;2023-04-23T05:19:31;9.30;99.90
11700;DHT22;5906;51.660;6.674;2023-04-23T05:21:58;9.50;99.90
11700;DHT22;5906;51.660;6.674;2023-04-23T05:24:26;9.60;99.90
11700;DHT22;5906;51.660;6.674;2023-04-23T05:26:52;9.60;99.90
11700;DHT22;5906;51.660;6.674;2023-04-23T05:29:19;9.70;99.90
11700;DHT22;5906;51.660;6.674;2023-04-23T05:31:46;9.90;99.90
11700;DHT22;5906;51.660;6.674;2023-04-23T05:34:13;9.90;99.90
11700;DHT22;5906;51.660;6.674;2023-04-23T05:36:40;10.00;99.90
11700;DHT22;5906;51.660;6.674;2023-04-23T05:39:07;10.10;99.90
11700;DHT22;5906;51.660;6.674;2023-04-23T05:41:34;10.10;99.90
11700;DHT22;5906;51.660;6.674;2023-04-23T05:44:01;10.10;99.90
11700;DHT22;5906;51.660;6.674;2023-04-23T05:46:28;10.20;99.90
11700;DHT22;5906;51.660;6.674;2023-04-23T05:48:56;10.20;99.90
11700;DHT22;5906;51.660;6.674;2023-04-23T05:51:23;10.30;99.90
11700;DHT22;5906;51.660;6.674;2023-04-23T05:53:49;10.40;99.90
11700;DHT22;5906;51.660;6.674;2023-04-23T05:56:17;10.40;99.90
11700;DHT22;5906;51.660;6.674;2023-04-23T05:58:45;10.50;99.90
11700;DHT22;5906;51.660;6.674;2023-04-23T06:01:12;10.60;99.90
11700;DHT22;5906;51.660;6.674;2023-04-23T06:03:39;10.60;99.90
11700;DHT22;5906;51.660;6.674;2023-04-23T06:06:12;10.70;99.90
11700;DHT22;5906;51.660;6.674;2023-04-23T06:08:39;10.70;99.90
11700;DHT22;5906;51.660;6.674;2023-04-23T06:11:06;10.80;99.90
11700;DHT22;5906;51.660;6.674;2023-04-23T06:13:33;10.90;99.90
11700;DHT22;5906;51.660;6.674;2023-04-23T06:16:09;11.00;99.90
11700;DHT22;5906;51.660;6.674;2023-04-23T06:18:36;11.00;99.90
11700;DHT22;5906;51.660;6.674;2023-04-23T06:21:04;11.20;99.90
11700;DHT22;5906;51.660;6.674;2023-04-23T06:23:33;11.30;99.90
11700;DHT22;5906;51.660;6.674;2023-04-23T06:26:00;11.40;99.90
11700;DHT22;5906;51.660;6.674;2023-04-23T06:28:27;11.50;99.90
11700;DHT22;5906;51.660;6.674;2023-04-23T06:30:54;11.50;99.90
11700;DHT22;5906;51.660;6.674;2023-04-23T06:33:21;11.50;99.90
11700;DHT22;5906;51.660;6.674;2023-04-23T06:35:48;11.60;99.90
11700;DHT22;5906;51.660;6.674;2023-04-23T06:38:15;11.50;99.90
11700;DHT22;5906;51.660;6.674;2023-04-23T06:40:44;11.70;99.90
11700;DHT22;5906;51.660;6.674;2023-04-23T06:43:11;11.90;99.90
11700;DHT22;5906;51.660;6.674;2023-04-23T06:45:40;12.10;99.90
11700;DHT22;5906;51.660;6.674;2023-04-23T06:48:07;12.30;99.90
11700;DHT22;5906;51.660;6.674;2023-04-23T06:50:38;12.50;99.90
11700;DHT22;5906;51.660;6.674;2023-04-23T06:53:05;12.60;99.90
11700;DHT22;5906;51.660;6.674;2023-04-23T06:55:32;12.60;99.90
11700;DHT22;5906;51.660;6.674;2023-04-23T06:57:59;12.60;99.90
11700;DHT22;5906;51.660;6.674;2023-04-23T07:00:26;12.60;99.90
11700;DHT22;5906;51.660;6.674;2023-04-23T07:02:53;12.70;99.90
11700;DHT22;5906;51.660;6.674;2023-04-23T07:05:20;12.90;99.90
11700;DHT22;5906;51.660;6.674;2023-04-23T07:07:47;13.20;99.90
11700;DHT22;5906;51.660;6.674;2023-04-23T07:10:15;13.50;99.90
11700;DHT22;5906;51.660;6.674;2023-04-23T07:12:44;13.80;99.90
11700;DHT22;5906;51.660;6.674;2023-04-23T07:15:11;14.00;99.90
11700;DHT22;5906;51.660;6.674;2023-04-23T07:17:38;14.20;99.90
11700;DHT22;5906;51.660;6.674;2023-04-23T07:20:06;14.30;99.90
11700;DHT22;5906;51.660;6.674;2023-04-23T07:22:34;14.50;99.90
11700;DHT22;5906;51.660;6.674;2023-04-23T07:25:01;14.60;99.90
11700;DHT22;5906;51.660;6.674;2023-04-23T07:27:28;14.70;99.90
11700;DHT22;5906;51.660;6.674;2023-04-23T07:29:55;14.80;99.90
11700;DHT22;5906;51.660;6.674;2023-04-23T07:32:22;14.90;99.90
11700;DHT22;5906;51.660;6.674;2023-04-23T07:34:54;15.10;99.90
11700;DHT22;5906;51.660;6.674;2023-04-23T07:37:22;15.20;99.90
11700;DHT22;5906;51.660;6.674;2023-04-23T07:39:50;15.40;99.90
11700;DHT22;5906;51.660;6.674;2023-04-23T07:42:17;15.60;99.90
11700;DHT22;5906;51.660;6.674;2023-04-23T07:44:44;15.70;99.90
11700;DHT22;5906;51.660;6.674;2023-04-23T07:47:11;15.70;99.90
11700;DHT22;5906;51.660;6.674;2023-04-23T07:49:38;15.90;99.90
11700;DHT22;5906;51.660;6.674;2023-04-23T07:52:08;16.00;99.90
11700;DHT22;5906;51.660;6.674;2023-04-23T07:54:35;16.30;99.90
11700;DHT22;5906;51.660;6.674;2023-04-23T07:57:02;16.40;99.90
11700;DHT22;5906;51.660;6.674;2023-04-23T07:59:30;16.60;99.90
11700;DHT22;5906;51.660;6.674;2023-04-23T08:01:56;16.70;99.90
11700;DHT22;5906;51.660;6.674;2023-04-23T08:04:24;17.00;99.90
11700;DHT22;5906;51.660;6.674;2023-04-23T08:06:51;17.00;99.90
11700;DHT22;5906;51.660;6.674;2023-04-23T08:09:18;16.90;99.90
11700;DHT22;5906;51.660;6.674;2023-04-23T08:11:47;17.00;99.90
11700;DHT22;5906;51.660;6.674;2023-04-23T08:14:14;17.10;99.90
11700;DHT22;5906;51.660;6.674;2023-04-23T08:16:42;17.10;99.90
11700;DHT22;5906;51.660;6.674;2023-04-23T08:19:09;17.20;99.90
11700;DHT22;5906;51.660;6.674;2023-04-23T08:21:36;17.40;99.90
11700;DHT22;5906;51.660;6.674;2023-04-23T08:24:04;17.50;99.90
11700;DHT22;5906;51.660;6.674;2023-04-23T08:26:33;17.40;99.90
11700;DHT22;5906;51.660;6.674;2023-04-23T08:29:00;17.50;99.90
11700;DHT22;5906;51.660;6.674;2023-04-23T08:31:29;17.80;99.90
11700;DHT22;5906;51.660;6.674;2023-04-23T08:33:56;17.70;99.90
11700;DHT22;5906;51.660;6.674;2023-04-23T08:36:23;17.50;99.90
11700;DHT22;5906;51.660;6.674;2023-04-23T08:38:51;17.30;99.90
11700;DHT22;5906;51.660;6.674;2023-04-23T08:41:21;17.30;99.90
11700;DHT22;5906;51.660;6.674;2023-04-23T08:43:51;17.60;99.90
11700;DHT22;5906;51.660;6.674;2023-04-23T08:46:18;17.90;99.90
11700;DHT22;5906;51.660;6.674;2023-04-23T08:48:47;18.00;99.90
11700;DHT22;5906;51.660;6.674;2023-04-23T08:51:21;18.30;99.90
11700;DHT22;5906;51.660;6.674;2023-04-23T08:53:55;18.50;99.90
11700;DHT22;5906;51.660;6.674;2023-04-23T08:56:22;18.60;99.90
11700;DHT22;5906;51.660;6.674;2023-04-23T08:58:49;18.50;99.90
11700;DHT22;5906;51.660;6.674;2023-04-23T09:01:17;18.30;99.90
11700;DHT22;5906;51.660;6.674;2023-04-23T09:03:45;18.50;99.90
11700;DHT22;5906;51.660;6.674;2023-04-23T09:06:12;18.70;99.90
11700;DHT22;5906;51.660;6.674;2023-04-23T09:08:39;18.90;99.90
11700;DHT22;5906;51.660;6.674;2023-04-23T09:11:07;19.30;99.90
11700;DHT22;5906;51.660;6.674;2023-04-23T09:13:34;19.60;99.90
11700;DHT22;5906;51.660;6.674;2023-04-23T09:16:04;20.00;99.90
11700;DHT22;5906;51.660;6.674;2023-04-23T09:18:31;19.70;99.90
11700;DHT22;5906;51.660;6.674;2023-04-23T09:20:58;19.50;99.90
11700;DHT22;5906;51.660;6.674;2023-04-23T09:23:26;19.20;99.90
11700;DHT22;5906;51.660;6.674;2023-04-23T09:25:55;19.20;99.90
11700;DHT22;5906;51.660;6.674;2023-04-23T09:28:34;19.50;99.90
11700;DHT22;5906;51.660;6.674;2023-04-23T09:31:04;20.10;99.90
11700;DHT22;5906;51.660;6.674;2023-04-23T09:33:34;20.50;99.90
11700;DHT22;5906;51.660;6.674;2023-04-23T09:36:09;20.90;99.90
11700;DHT22;5906;51.660;6.674;2023-04-23T09:38:39;20.90;99.90
11700;DHT22;5906;51.660;6.674;2023-04-23T09:41:24;20.70;99.90
11700;DHT22;5906;51.660;6.674;2023-04-23T09:43:55;20.60;99.90
11700;DHT22;5906;51.660;6.674;2023-04-23T09:46:37;20.70;99.90
11700;DHT22;5906;51.660;6.674;2023-04-23T09:49:05;20.90;99.90
11700;DHT22;5906;51.660;6.674;2023-04-23T09:51:41;20.50;99.90
11700;DHT22;5906;51.660;6.674;2023-04-23T09:54:12;20.50;99.90
11700;DHT22;5906;51.660;6.674;2023-04-23T09:56:41;20.50;99.90
11700;DHT22;5906;51.660;6.674;2023-04-23T09:59:23;20.30;99.90
11700;DHT22;5906;51.660;6.674;2023-04-23T10:02:11;20.50;99.80
11700;DHT22;5906;51.660;6.674;2023-04-23T10:04:38;20.50;98.50
11700;DHT22;5906;51.660;6.674;2023-04-23T10:07:06;20.50;97.30
11700;DHT22;5906;51.660;6.674;2023-04-23T10:09:42;20.40;98.10
11700;DHT22;5906;51.660;6.674;2023-04-23T10:12:10;20.50;97.40
11700;DHT22;5906;51.660;6.674;2023-04-23T10:14:57;20.50;97.30
11700;DHT22;5906;51.660;6.674;2023-04-23T10:17:25;20.80;99.90
11700;DHT22;5906;51.660;6.674;2023-04-23T10:19:54;20.90;95.90
11700;DHT22;5906;51.660;6.674;2023-04-23T10:22:22;20.70;94.90
11700;DHT22;5906;51.660;6.674;2023-04-23T10:24:52;20.50;95.10
11700;DHT22;5906;51.660;6.674;2023-04-23T10:27:26;20.40;96.40
11700;DHT22;5906;51.660;6.674;2023-04-23T10:30:13;20.40;96.00
11700;DHT22;5906;51.660;6.674;2023-04-23T10:32:40;20.50;95.00
11700;DHT22;5906;51.660;6.674;2023-04-23T10:35:08;20.60;93.10
11700;DHT22;5906;51.660;6.674;2023-04-23T10:37:36;20.60;92.20
11700;DHT22;5906;51.660;6.674;2023-04-23T10:40:13;20.60;91.90
11700;DHT22;5906;51.660;6.674;2023-04-23T10:42:42;20.60;89.00
11700;DHT22;5906;51.660;6.674;2023-04-23T10:45:13;20.50;88.70
11700;DHT22;5906;51.660;6.674;2023-04-23T10:47:50;20.60;90.30
11700;DHT22;5906;51.660;6.674;2023-04-23T10:50:27;20.30;90.40
11700;DHT22;5906;51.660;6.674;2023-04-23T10:52:54;20.30;90.60
11700;DHT22;5906;51.660;6.674;2023-04-23T10:55:26;19.90;88.90
11700;DHT22;5906;51.660;6.674;2023-04-23T11:00:28;20.00;91.30
11700;DHT22;5906;51.660;6.674;2023-04-23T11:02:55;20.20;91.60
11700;DHT22;5906;51.660;6.674;2023-04-23T11:05:23;20.50;91.40
11700;DHT22;5906;51.660;6.674;2023-04-23T11:08:04;20.60;84.30
11700;DHT22;5906;51.660;6.674;2023-04-23T11:10:53;20.70;85.00
11700;DHT22;5906;51.660;6.674;2023-04-23T11:13:23;20.70;81.30
11700;DHT22;5906;51.660;6.674;2023-04-23T11:16:16;20.70;77.70
11700;DHT22;5906;51.660;6.674;2023-04-23T11:21:21;21.10;83.10
11700;DHT22;5906;51.660;6.674;2023-04-23T11:23:48;21.50;73.80
11700;DHT22;5906;51.660;6.674;2023-04-23T11:26:18;21.60;72.10
11700;DHT22;5906;51.660;6.674;2023-04-23T11:28:48;21.40;77.20
11700;DHT22;5906;51.660;6.674;2023-04-23T11:31:17;21.40;70.30
11700;DHT22;5906;51.660;6.674;2023-04-23T11:33:44;21.40;71.10
11700;DHT22;5906;51.660;6.674;2023-04-23T11:36:11;21.50;67.70
11700;DHT22;5906;51.660;6.674;2023-04-23T11:38:41;21.60;66.10
11700;DHT22;5906;51.660;6.674;2023-04-23T11:41:08;21.80;57.10
11700;DHT22;5906;51.660;6.674;2023-04-23T11:43:36;21.70;57.40
11700;DHT22;5906;51.660;6.674;2023-04-23T11:46:03;21.30;55.80
11700;DHT22;5906;51.660;6.674;2023-04-23T11:48:30;21.10;66.40
11700;DHT22;5906;51.660;6.674;2023-04-23T11:50:57;21.20;67.90
11700;DHT22;5906;51.660;6.674;2023-04-23T11:53:25;21.60;70.60
11700;DHT22;5906;51.660;6.674;2023-04-23T11:55:53;21.70;68.30
11700;DHT22;5906;51.660;6.674;2023-04-23T11:58:20;21.90;69.90
11700;DHT22;5906;51.660;6.674;2023-04-23T12:00:47;21.90;57.10
11700;DHT22;5906;51.660;6.674;2023-04-23T12:03:15;21.70;54.70
11700;DHT22;5906;51.660;6.674;2023-04-23T12:05:43;21.60;57.00
11700;DHT22;5906;51.660;6.674;2023-04-23T12:08:17;21.50;54.10
11700;DHT22;5906;51.660;6.674;2023-04-23T12:13:14;21.70;52.90
11700;DHT22;5906;51.660;6.674;2023-04-23T12:15:58;21.90;56.20
11700;DHT22;5906;51.660;6.674;2023-04-23T12:18:30;21.70;55.10
11700;DHT22;5906;51.660;6.674;2023-04-23T12:21:09;21.50;52.50
11700;DHT22;5906;51.660;6.674;2023-04-23T12:23:37;21.20;55.50
11700;DHT22;5906;51.660;6.674;2023-04-23T12:26:10;21.10;59.10
11700;DHT22;5906;51.660;6.674;2023-04-23T12:28:54;21.20;62.50
11700;DHT22;5906;51.660;6.674;2023-04-23T12:31:24;21.00;57.10
11700;DHT22;5906;51.660;6.674;2023-04-23T12:34:04;20.80;55.40
11700;DHT22;5906;51.660;6.674;2023-04-23T12:36:32;20.90;59.70
11700;DHT22;5906;51.660;6.674;2023-04-23T12:39:22;21.00;58.40
11700;DHT22;5906;51.660;6.674;2023-04-23T12:42:00;21.00;55.30
11700;DHT22;5906;51.660;6.674;2023-04-23T12:44:29;20.90;55.00
11700;DHT22;5906;51.660;6.674;2023-04-23T12:46:58;20.90;56.70
11700;DHT22;5906;51.660;6.674;2023-04-23T12:49:26;20.90;57.60
11700;DHT22;5906;51.660;6.674;2023-04-23T12:51:54;21.20;52.00
11700;DHT22;5906;51.660;6.674;2023-04-23T12:54:24;21.40;50.10
11700;DHT22;5906;51.660;6.674;2023-04-23T12:56:52;21.60;56.60
11700;DHT22;5906;51.660;6.674;2023-04-23T12:59:19;21.60;57.00
11700;DHT22;5906;51.660;6.674;2023-04-23T13:01:47;21.80;55.70
11700;DHT22;5906;51.660;6.674;2023-04-23T13:04:14;22.00;51.50
11700;DHT22;5906;51.660;6.674;2023-04-23T13:06:41;21.90;42.90
11700;DHT22;5906;51.660;6.674;2023-04-23T13:09:09;21.70;45.90
11700;DHT22;5906;51.660;6.674;2023-04-23T13:11:37;21.90;44.90
11700;DHT22;5906;51.660;6.674;2023-04-23T13:14:05;22.10;38.90
11700;DHT22;5906;51.660;6.674;2023-04-23T13:16:32;22.30;34.80
11700;DHT22;5906;51.660;6.674;2023-04-23T13:19:00;22.40;31.40
11700;DHT22;5906;51.660;6.674;2023-04-23T13:21:27;22.20;32.60
11700;DHT22;5906;51.660;6.674;2023-04-23T13:23:55;22.20;37.00
11700;DHT22;5906;51.660;6.674;2023-04-23T13:26:22;21.90;32.50
11700;DHT22;5906;51.660;6.674;2023-04-23T13:28:49;21.60;37.20
11700;DHT22;5906;51.660;6.674;2023-04-23T13:31:17;21.60;36.20
11700;DHT22;5906;51.660;6.674;2023-04-23T13:33:44;21.70;36.20
11700;DHT22;5906;51.660;6.674;2023-04-23T13:36:11;21.60;40.50
11700;DHT22;5906;51.660;6.674;2023-04-23T13:38:38;21.60;41.20
11700;DHT22;5906;51.660;6.674;2023-04-23T13:41:05;21.60;36.30
11700;DHT22;5906;51.660;6.674;2023-04-23T13:43:32;21.70;35.90
11700;DHT22;5906;51.660;6.674;2023-04-23T13:45:59;21.50;33.50
11700;DHT22;5906;51.660;6.674;2023-04-23T13:48:26;21.20;36.00
11700;DHT22;5906;51.660;6.674;2023-04-23T13:50:57;20.70;35.50
11700;DHT22;5906;51.660;6.674;2023-04-23T13:53:25;20.60;41.80
11700;DHT22;5906;51.660;6.674;2023-04-23T13:55:53;20.70;42.10
11700;DHT22;5906;51.660;6.674;2023-04-23T13:58:20;20.60;41.60
11700;DHT22;5906;51.660;6.674;2023-04-23T14:00:47;20.50;40.00
11700;DHT22;5906;51.660;6.674;2023-04-23T14:03:14;20.40;40.80
11700;DHT22;5906;51.660;6.674;2023-04-23T14:05:41;20.40;45.50
11700;DHT22;5906;51.660;6.674;2023-04-23T14:08:08;20.60;45.40
11700;DHT22;5906;51.660;6.674;2023-04-23T14:10:35;20.60;44.30
11700;DHT22;5906;51.660;6.674;2023-04-23T14:13:03;20.30;43.00
11700;DHT22;5906;51.660;6.674;2023-04-23T14:15:30;20.40;41.80
11700;DHT22;5906;51.660;6.674;2023-04-23T14:17:57;20.30;43.00
11700;DHT22;5906;51.660;6.674;2023-04-23T14:20:25;20.20;45.10
11700;DHT22;5906;51.660;6.674;2023-04-23T14:26:04;19.90;44.00
11700;DHT22;5906;51.660;6.674;2023-04-23T14:28:40;19.80;44.30
11700;DHT22;5906;51.660;6.674;2023-04-23T14:31:10;20.00;48.00
11700;DHT22;5906;51.660;6.674;2023-04-23T14:33:37;20.20;47.70
11700;DHT22;5906;51.660;6.674;2023-04-23T14:36:04;20.40;45.10
11700;DHT22;5906;51.660;6.674;2023-04-23T14:38:32;20.50;45.20
11700;DHT22;5906;51.660;6.674;2023-04-23T14:40:59;20.70;41.50
11700;DHT22;5906;51.660;6.674;2023-04-23T14:43:26;20.70;40.20
11700;DHT22;5906;51.660;6.674;2023-04-23T14:45:53;20.50;40.20
11700;DHT22;5906;51.660;6.674;2023-04-23T14:48:20;20.40;40.40
11700;DHT22;5906;51.660;6.674;2023-04-23T14:50:47;20.40;41.80
11700;DHT22;5906;51.660;6.674;2023-04-23T14:53:14;20.40;42.30
11700;DHT22;5906;51.660;6.674;2023-04-23T14:55:41;20.50;44.20
11700;DHT22;5906;51.660;6.674;2023-04-23T14:58:09;20.50;42.50
11700;DHT22;5906;51.660;6.674;2023-04-23T15:00:36;20.50;40.70
11700;DHT22;5906;51.660;6.674;2023-04-23T15:03:03;20.30;41.00
11700;DHT22;5906;51.660;6.674;2023-04-23T15:05:37;20.10;41.70
11700;DHT22;5906;51.660;6.674;2023-04-23T15:08:05;19.90;39.80
11700;DHT22;5906;51.660;6.674;2023-04-23T15:10:33;19.70;41.70
11700;DHT22;5906;51.660;6.674;2023-04-23T15:15:49;19.60;40.30
11700;DHT22;5906;51.660;6.674;2023-04-23T15:18:17;19.20;42.60
11700;DHT22;5906;51.660;6.674;2023-04-23T15:20:44;19.30;43.00
11700;DHT22;5906;51.660;6.674;2023-04-23T15:23:11;19.00;42.90
11700;DHT22;5906;51.660;6.674;2023-04-23T15:25:38;18.80;44.10
11700;DHT22;5906;51.660;6.674;2023-04-23T15:28:06;18.60;43.90
11700;DHT22;5906;51.660;6.674;2023-04-23T15:30:33;18.60;44.30
11700;DHT22;5906;51.660;6.674;2023-04-23T15:33:00;18.60;45.70
11700;DHT22;5906;51.660;6.674;2023-04-23T15:35:27;18.60;46.90
11700;DHT22;5906;51.660;6.674;2023-04-23T15:37:54;18.60;47.80
11700;DHT22;5906;51.660;6.674;2023-04-23T15:40:21;18.50;51.70
11700;DHT22;5906;51.660;6.674;2023-04-23T15:42:48;18.40;57.70
11700;DHT22;5906;51.660;6.674;2023-04-23T15:45:16;18.20;70.30
11700;DHT22;5906;51.660;6.674;2023-04-23T15:47:43;18.20;81.10
11700;DHT22;5906;51.660;6.674;2023-04-23T15:50:10;17.70;88.00
11700;DHT22;5906;51.660;6.674;2023-04-23T15:52:38;17.20;99.90
11700;DHT22;5906;51.660;6.674;2023-04-23T15:55:07;16.80;99.90
11700;DHT22;5906;51.660;6.674;2023-04-23T15:57:34;16.40;99.90
11700;DHT22;5906;51.660;6.674;2023-04-23T16:00:01;16.10;99.90
11700;DHT22;5906;51.660;6.674;2023-04-23T16:02:28;15.80;99.90
11700;DHT22;5906;51.660;6.674;2023-04-23T16:04:55;15.50;99.90
11700;DHT22;5906;51.660;6.674;2023-04-23T16:07:22;15.20;99.90
11700;DHT22;5906;51.660;6.674;2023-04-23T16:09:49;15.00;99.90
11700;DHT22;5906;51.660;6.674;2023-04-23T16:12:17;14.90;99.90
11700;DHT22;5906;51.660;6.674;2023-04-23T16:14:44;14.80;99.90